Back to Top

Language: 

My Weather Underground Personal Weather Station Historical Data with Graphs...

Delerius Weather Station Historical Data
Daily Summary for February 3, 2017 Units:  Both    English   Metric
« Previous Day
Next Day »
Daily Weekly Monthly Yearly Custom
  High: Low: Average:
Temperature: 50.6 °F /  10.3 °C 43.0 °F /  6.1 °C 46.6 °F /  8.1 °C
Dew Point: 43.8 °F /  6.6 °C 39.7 °F /  4.3 °C 42 °F /  5.6 °C
Humidity: 95 % 73 % 84 %
Wind Speed: 20.0 mph /  32.2 km/h - 10.4 mph /  16.7 km/h
Wind Gust: 34.0 mph /  54.7 km/h - -
Wind:- - SSE
Pressure: 29.38 in /  994.8 hPa 29.14 in /  986.7 hPa -
Precipitation: 0.05 in /  1.27 mm    
Historical Graphs
 
 
Tabular Data for February 3, 2017
Time Temperature Dew Point Pressure Wind Wind Speed Wind Gust Humidity Rainfall Rate (Hourly) solar Conditions
00:05 50.6 °F /  10.3 °C 43.7 °F /  6.5 °C 29.20 in /  988.7 hPa South 15.0 mph /  24.1 km/h 21.0 mph /  33.8 km/h 77 % 0.00 in /  0 mm 0 W/m2
00:15 50.6 °F /  10.3 °C 43.7 °F /  6.5 °C 29.20 in /  988.7 hPa SSW 20.0 mph /  32.2 km/h 28.0 mph /  45.1 km/h 77 % 0.00 in /  0 mm 0 W/m2
00:20 50.4 °F /  10.2 °C 43.8 °F /  6.6 °C 29.20 in /  988.7 hPa SSW 19.0 mph /  30.6 km/h 19.0 mph /  30.6 km/h 78 % 0.00 in /  0 mm 0 W/m2
00:25 50.3 °F /  10.2 °C 43.7 °F /  6.5 °C 29.20 in /  988.7 hPa South 17.0 mph /  27.4 km/h 19.0 mph /  30.6 km/h 78 % 0.00 in /  0 mm 0 W/m2
00:35 50.2 °F /  10.1 °C 43.3 °F /  6.3 °C 29.21 in /  989.1 hPa South 20.0 mph /  32.2 km/h 30.0 mph /  48.3 km/h 77 % 0.00 in /  0 mm 0 W/m2
00:40 50.1 °F /  10.1 °C 43.2 °F /  6.2 °C 29.21 in /  989.1 hPa South 19.0 mph /  30.6 km/h 19.0 mph /  30.6 km/h 77 % 0.00 in /  0 mm 0 W/m2
00:45 50.0 °F /  10 °C 43.4 °F /  6.3 °C 29.22 in /  989.4 hPa SSW 16.0 mph /  25.7 km/h 19.0 mph /  30.6 km/h 78 % 0.00 in /  0 mm 0 W/m2
00:50 49.9 °F /  9.9 °C 43.0 °F /  6.1 °C 29.22 in /  989.4 hPa SW 16.0 mph /  25.7 km/h 16.0 mph /  25.7 km/h 77 % 0.00 in /  0 mm 0 W/m2
00:55 49.8 °F /  9.9 °C 43.2 °F /  6.2 °C 29.22 in /  989.4 hPa SSW 17.0 mph /  27.4 km/h 17.0 mph /  27.4 km/h 78 % 0.00 in /  0 mm 0 W/m2
01:05 49.7 °F /  9.8 °C 42.8 °F /  6 °C 29.23 in /  989.7 hPa SSW 15.0 mph /  24.1 km/h 21.0 mph /  33.8 km/h 77 % 0.00 in /  0 mm 0 W/m2
01:10 49.8 °F /  9.9 °C 42.9 °F /  6.1 °C 29.23 in /  989.7 hPa SW 15.0 mph /  24.1 km/h 15.0 mph /  24.1 km/h 77 % 0.00 in /  0 mm 0 W/m2
01:15 49.8 °F /  9.9 °C 42.9 °F /  6.1 °C 29.23 in /  989.7 hPa SW 14.0 mph /  22.5 km/h 34.0 mph /  54.7 km/h 77 % 0.00 in /  0 mm 0 W/m2
01:20 49.7 °F /  9.8 °C 43.1 °F /  6.2 °C 29.23 in /  989.7 hPa SW 14.0 mph /  22.5 km/h 14.0 mph /  22.5 km/h 78 % 0.00 in /  0 mm 0 W/m2
01:29 49.6 °F /  9.8 °C 43.0 °F /  6.1 °C 29.23 in /  989.7 hPa SSW 14.0 mph /  22.5 km/h 34.0 mph /  54.7 km/h 78 % 0.00 in /  0 mm 0 W/m2
01:34 49.6 °F /  9.8 °C 43.0 °F /  6.1 °C 29.24 in /  990.1 hPa SSW 15.0 mph /  24.1 km/h 34.0 mph /  54.7 km/h 78 % 0.00 in /  0 mm 0 W/m2
01:40 49.5 °F /  9.7 °C 42.9 °F /  6.1 °C 29.24 in /  990.1 hPa SW 15.0 mph /  24.1 km/h 34.0 mph /  54.7 km/h 78 % 0.00 in /  0 mm 0 W/m2
01:45 49.4 °F /  9.7 °C 42.8 °F /  6 °C 29.24 in /  990.1 hPa SSW 16.0 mph /  25.7 km/h 34.0 mph /  54.7 km/h 78 % 0.00 in /  0 mm 0 W/m2
01:50 49.4 °F /  9.7 °C 42.8 °F /  6 °C 29.25 in /  990.4 hPa SSW 17.0 mph /  27.4 km/h 17.0 mph /  27.4 km/h 78 % 0.00 in /  0 mm 0 W/m2
01:59 49.2 °F /  9.6 °C 42.6 °F /  5.9 °C 29.24 in /  990.1 hPa SW 17.0 mph /  27.4 km/h 17.0 mph /  27.4 km/h 78 % 0.00 in /  0 mm 0 W/m2
02:05 49.0 °F /  9.4 °C 42.8 °F /  6 °C 29.24 in /  990.1 hPa SSW 17.0 mph /  27.4 km/h 34.0 mph /  54.7 km/h 79 % 0.00 in /  0 mm 0 W/m2
02:10 48.9 °F /  9.4 °C 42.7 °F /  5.9 °C 29.25 in /  990.4 hPa SW 15.0 mph /  24.1 km/h 15.0 mph /  24.1 km/h 79 % 0.00 in /  0 mm 0 W/m2
02:19 48.7 °F /  9.3 °C 42.8 °F /  6 °C 29.25 in /  990.4 hPa South 12.0 mph /  19.3 km/h 34.0 mph /  54.7 km/h 80 % 0.00 in /  0 mm 0 W/m2
02:25 48.6 °F /  9.2 °C 42.7 °F /  5.9 °C 29.25 in /  990.4 hPa SSW 13.0 mph /  20.9 km/h 34.0 mph /  54.7 km/h 80 % 0.00 in /  0 mm 0 W/m2
02:30 48.7 °F /  9.3 °C 42.5 °F /  5.8 °C 29.25 in /  990.4 hPa SW 15.0 mph /  24.1 km/h 34.0 mph /  54.7 km/h 79 % 0.00 in /  0 mm 0 W/m2
02:35 48.7 °F /  9.3 °C 42.1 °F /  5.6 °C 29.25 in /  990.4 hPa SSW 16.0 mph /  25.7 km/h 34.0 mph /  54.7 km/h 78 % 0.00 in /  0 mm 0 W/m2
02:40 48.6 °F /  9.2 °C 42.0 °F /  5.6 °C 29.25 in /  990.4 hPa SSW 15.0 mph /  24.1 km/h 15.0 mph /  24.1 km/h 78 % 0.00 in /  0 mm 0 W/m2
02:50 48.5 °F /  9.2 °C 42.3 °F /  5.7 °C 29.25 in /  990.4 hPa SSW 13.0 mph /  20.9 km/h 13.0 mph /  20.9 km/h 79 % 0.00 in /  0 mm 0 W/m2
02:55 48.4 °F /  9.1 °C 42.2 °F /  5.7 °C 29.25 in /  990.4 hPa SW 11.0 mph /  17.7 km/h 34.0 mph /  54.7 km/h 79 % 0.00 in /  0 mm 0 W/m2
03:00 48.3 °F /  9.1 °C 42.1 °F /  5.6 °C 29.26 in /  990.7 hPa South 12.0 mph /  19.3 km/h 12.0 mph /  19.3 km/h 79 % 0.00 in /  0 mm 0 W/m2
03:05 48.2 °F /  9 °C 42.0 °F /  5.6 °C 29.26 in /  990.7 hPa SSW 12.0 mph /  19.3 km/h 34.0 mph /  54.7 km/h 79 % 0.00 in /  0 mm 0 W/m2
03:10 48.1 °F /  8.9 °C 42.2 °F /  5.7 °C 29.26 in /  990.7 hPa SSW 10.0 mph /  16.1 km/h 10.0 mph /  16.1 km/h 80 % 0.00 in /  0 mm 0 W/m2
03:20 47.8 °F /  8.8 °C 41.9 °F /  5.5 °C 29.27 in /  991.1 hPa SSW 11.0 mph /  17.7 km/h 34.0 mph /  54.7 km/h 80 % 0.00 in /  0 mm 0 W/m2
03:25 47.8 °F /  8.8 °C 42.3 °F /  5.7 °C 29.27 in /  991.1 hPa SSW 10.0 mph /  16.1 km/h 34.0 mph /  54.7 km/h 81 % 0.00 in /  0 mm 0 W/m2
03:30 47.7 °F /  8.7 °C 42.5 °F /  5.8 °C 29.27 in /  991.1 hPa SSW 11.0 mph /  17.7 km/h 34.0 mph /  54.7 km/h 82 % 0.00 in /  0 mm 0 W/m2
03:35 47.6 °F /  8.7 °C 42.4 °F /  5.8 °C 29.27 in /  991.1 hPa South 11.0 mph /  17.7 km/h 34.0 mph /  54.7 km/h 82 % 0.00 in /  0 mm 0 W/m2
03:40 47.6 °F /  8.7 °C 42.4 °F /  5.8 °C 29.27 in /  991.1 hPa South 11.0 mph /  17.7 km/h 34.0 mph /  54.7 km/h 82 % 0.00 in /  0 mm 0 W/m2
03:45 47.3 °F /  8.5 °C 42.4 °F /  5.8 °C 29.26 in /  990.7 hPa SSE 10.0 mph /  16.1 km/h 34.0 mph /  54.7 km/h 83 % 0.00 in /  0 mm 0 W/m2
03:55 47.1 °F /  8.4 °C 42.2 °F /  5.7 °C 29.26 in /  990.7 hPa SSW 10.0 mph /  16.1 km/h 34.0 mph /  54.7 km/h 83 % 0.00 in /  0 mm 0 W/m2
04:00 47.0 °F /  8.3 °C 42.1 °F /  5.6 °C 29.27 in /  991.1 hPa SW 9.0 mph /  14.5 km/h 9.0 mph /  14.5 km/h 83 % 0.00 in /  0 mm 0 W/m2
04:05 47.0 °F /  8.3 °C 42.1 °F /  5.6 °C 29.27 in /  991.1 hPa South 10.0 mph /  16.1 km/h 12.0 mph /  19.3 km/h 83 % 0.00 in /  0 mm 0 W/m2
04:10 47.0 °F /  8.3 °C 42.1 °F /  5.6 °C 29.28 in /  991.4 hPa South 10.0 mph /  16.1 km/h 34.0 mph /  54.7 km/h 83 % 0.00 in /  0 mm 0 W/m2
04:15 46.9 °F /  8.3 °C 42.0 °F /  5.6 °C 29.28 in /  991.4 hPa SSW 9.0 mph /  14.5 km/h 34.0 mph /  54.7 km/h 83 % 0.00 in /  0 mm 0 W/m2
04:25 46.9 °F /  8.3 °C 42.0 °F /  5.6 °C 29.28 in /  991.4 hPa SSW 10.0 mph /  16.1 km/h 34.0 mph /  54.7 km/h 83 % 0.00 in /  0 mm 0 W/m2
04:30 46.8 °F /  8.2 °C 41.9 °F /  5.5 °C 29.28 in /  991.4 hPa South 11.0 mph /  17.7 km/h 34.0 mph /  54.7 km/h 83 % 0.00 in /  0 mm 0 W/m2
04:35 46.7 °F /  8.2 °C 41.8 °F /  5.4 °C 29.28 in /  991.4 hPa South 11.0 mph /  17.7 km/h 34.0 mph /  54.7 km/h 83 % 0.00 in /  0 mm 0 W/m2
04:40 46.7 °F /  8.2 °C 42.1 °F /  5.6 °C 29.28 in /  991.4 hPa SSE 10.0 mph /  16.1 km/h 34.0 mph /  54.7 km/h 84 % 0.00 in /  0 mm 0 W/m2
04:45 46.6 °F /  8.1 °C 42.0 °F /  5.6 °C 29.28 in /  991.4 hPa SSW 11.0 mph /  17.7 km/h 34.0 mph /  54.7 km/h 84 % 0.00 in /  0 mm 0 W/m2
04:50 46.5 °F /  8.1 °C 41.6 °F /  5.3 °C 29.29 in /  991.8 hPa South 12.0 mph /  19.3 km/h 34.0 mph /  54.7 km/h 83 % 0.00 in /  0 mm 0 W/m2
05:00 46.3 °F /  7.9 °C 41.4 °F /  5.2 °C 29.29 in /  991.8 hPa SSW 11.0 mph /  17.7 km/h 34.0 mph /  54.7 km/h 83 % 0.00 in /  0 mm 0 W/m2
05:05 46.3 °F /  7.9 °C 41.1 °F /  5.1 °C 29.29 in /  991.8 hPa SSW 12.0 mph /  19.3 km/h 34.0 mph /  54.7 km/h 82 % 0.00 in /  0 mm 0 W/m2
05:10 46.2 °F /  7.9 °C 41.0 °F /  5 °C 29.29 in /  991.8 hPa South 13.0 mph /  20.9 km/h 13.0 mph /  20.9 km/h 82 % 0.00 in /  0 mm 0 W/m2
05:15 46.2 °F /  7.9 °C 41.0 °F /  5 °C 29.29 in /  991.8 hPa South 14.0 mph /  22.5 km/h 18.0 mph /  29 km/h 82 % 0.00 in /  0 mm 0 W/m2
05:20 46.2 °F /  7.9 °C 41.0 °F /  5 °C 29.29 in /  991.8 hPa South 13.0 mph /  20.9 km/h 13.0 mph /  20.9 km/h 82 % 0.00 in /  0 mm 0 W/m2
05:30 46.0 °F /  7.8 °C 41.1 °F /  5.1 °C 29.30 in /  992.1 hPa South 12.0 mph /  19.3 km/h 12.0 mph /  19.3 km/h 83 % 0.00 in /  0 mm 0 W/m2
05:35 45.9 °F /  7.7 °C 40.7 °F /  4.8 °C 29.30 in /  992.1 hPa SSW 11.0 mph /  17.7 km/h 13.0 mph /  20.9 km/h 82 % 0.00 in /  0 mm 0 W/m2
05:40 45.8 °F /  7.7 °C 40.6 °F /  4.8 °C 29.30 in /  992.1 hPa SSE 10.0 mph /  16.1 km/h 10.0 mph /  16.1 km/h 82 % 0.00 in /  0 mm 0 W/m2
05:45 45.7 °F /  7.6 °C 40.8 °F /  4.9 °C 29.30 in /  992.1 hPa South 10.0 mph /  16.1 km/h 34.0 mph /  54.7 km/h 83 % 0.00 in /  0 mm 0 W/m2
05:50 45.6 °F /  7.6 °C 40.7 °F /  4.8 °C 29.30 in /  992.1 hPa SSW 9.0 mph /  14.5 km/h 9.0 mph /  14.5 km/h 83 % 0.00 in /  0 mm 0 W/m2
05:55 45.5 °F /  7.5 °C 40.6 °F /  4.8 °C 29.31 in /  992.4 hPa SW 8.0 mph /  12.9 km/h 34.0 mph /  54.7 km/h 83 % 0.00 in /  0 mm 0 W/m2
06:05 45.3 °F /  7.4 °C 40.7 °F /  4.8 °C 29.31 in /  992.4 hPa SW 7.0 mph /  11.3 km/h 34.0 mph /  54.7 km/h 84 % 0.00 in /  0 mm 0 W/m2
06:10 45.1 °F /  7.3 °C 40.6 °F /  4.8 °C 29.31 in /  992.4 hPa SW 7.0 mph /  11.3 km/h 34.0 mph /  54.7 km/h 84 % 0.00 in /  0 mm 0 W/m2
06:15 45.0 °F /  7.2 °C 40.5 °F /  4.7 °C 29.32 in /  992.8 hPa SW 7.0 mph /  11.3 km/h 34.0 mph /  54.7 km/h 84 % 0.00 in /  0 mm 0 W/m2
06:20 44.9 °F /  7.2 °C 40.7 °F /  4.8 °C 29.32 in /  992.8 hPa SSW 6.0 mph /  9.7 km/h 34.0 mph /  54.7 km/h 85 % 0.00 in /  0 mm 0 W/m2
06:25 44.7 °F /  7.1 °C 40.5 °F /  4.7 °C 29.33 in /  993.1 hPa SSW 5.0 mph /  8 km/h 34.0 mph /  54.7 km/h 85 % 0.00 in /  0 mm 0 W/m2
06:35 44.4 °F /  6.9 °C 40.5 °F /  4.7 °C 29.33 in /  993.1 hPa SSW 5.0 mph /  8 km/h 8.0 mph /  12.9 km/h 86 % 0.00 in /  0 mm 0 W/m2
06:40 44.3 °F /  6.8 °C 40.4 °F /  4.7 °C 29.34 in /  993.5 hPa SSW 5.0 mph /  8 km/h 34.0 mph /  54.7 km/h 86 % 0.00 in /  0 mm 0 W/m2
06:45 44.1 °F /  6.7 °C 40.2 °F /  4.6 °C 29.33 in /  993.1 hPa SW 6.0 mph /  9.7 km/h 34.0 mph /  54.7 km/h 86 % 0.00 in /  0 mm 0 W/m2
06:50 44.1 °F /  6.7 °C 40.2 °F /  4.6 °C 29.34 in /  993.5 hPa SSW 7.0 mph /  11.3 km/h 7.0 mph /  11.3 km/h 86 % 0.00 in /  0 mm 0 W/m2
06:55 44.0 °F /  6.7 °C 40.1 °F /  4.5 °C 29.34 in /  993.5 hPa SSW 8.0 mph /  12.9 km/h 12.0 mph /  19.3 km/h 86 % 0.00 in /  0 mm 0 W/m2
07:00 43.9 °F /  6.6 °C 40.0 °F /  4.4 °C 29.34 in /  993.5 hPa SW 9.0 mph /  14.5 km/h 9.0 mph /  14.5 km/h 86 % 0.00 in /  0 mm 0 W/m2
07:10 43.9 °F /  6.6 °C 40.3 °F /  4.6 °C 29.34 in /  993.5 hPa SW 10.0 mph /  16.1 km/h 10.0 mph /  16.1 km/h 87 % 0.00 in /  0 mm 0 W/m2
07:15 43.9 °F /  6.6 °C 40.3 °F /  4.6 °C 29.35 in /  993.8 hPa SSW 11.0 mph /  17.7 km/h 14.0 mph /  22.5 km/h 87 % 0.00 in /  0 mm 0 W/m2
07:20 44.0 °F /  6.7 °C 40.4 °F /  4.7 °C 29.35 in /  993.8 hPa SSW 12.0 mph /  19.3 km/h 12.0 mph /  19.3 km/h 87 % 0.00 in /  0 mm 0 W/m2
07:25 44.0 °F /  6.7 °C 40.1 °F /  4.5 °C 29.35 in /  993.8 hPa SW 12.0 mph /  19.3 km/h 34.0 mph /  54.7 km/h 86 % 0.00 in /  0 mm 0 W/m2
07:30 43.9 °F /  6.6 °C 40.0 °F /  4.4 °C 29.35 in /  993.8 hPa SSW 10.0 mph /  16.1 km/h 10.0 mph /  16.1 km/h 86 % 0.00 in /  0 mm 0 W/m2
07:39 43.9 °F /  6.6 °C 40.0 °F /  4.4 °C 29.35 in /  993.8 hPa SSW 11.0 mph /  17.7 km/h 34.0 mph /  54.7 km/h 86 % 0.00 in /  0 mm 0 W/m2
07:44 43.8 °F /  6.6 °C 40.2 °F /  4.6 °C 29.35 in /  993.8 hPa SW 10.0 mph /  16.1 km/h 34.0 mph /  54.7 km/h 87 % 0.00 in /  0 mm 5 W/m2
07:49 43.7 °F /  6.5 °C 40.1 °F /  4.5 °C 29.35 in /  993.8 hPa SSW 8.0 mph /  12.9 km/h 8.0 mph /  12.9 km/h 87 % 0.00 in /  0 mm 7 W/m2
07:54 43.5 °F /  6.4 °C 39.9 °F /  4.4 °C 29.35 in /  993.8 hPa SW 7.0 mph /  11.3 km/h 10.0 mph /  16.1 km/h 87 % 0.00 in /  0 mm 11 W/m2
07:59 43.5 °F /  6.4 °C 39.9 °F /  4.4 °C 29.35 in /  993.8 hPa South 7.0 mph /  11.3 km/h 7.0 mph /  11.3 km/h 87 % 0.00 in /  0 mm 14 W/m2
08:04 43.4 °F /  6.3 °C 39.8 °F /  4.3 °C 29.35 in /  993.8 hPa SSW 6.0 mph /  9.7 km/h 34.0 mph /  54.7 km/h 87 % 0.00 in /  0 mm 18 W/m2
08:10 43.5 °F /  6.4 °C 39.9 °F /  4.4 °C 29.36 in /  994.1 hPa South 6.0 mph /  9.7 km/h 6.0 mph /  9.7 km/h 87 % 0.00 in /  0 mm 21 W/m2
08:15 43.5 °F /  6.4 °C 39.9 °F /  4.4 °C 29.36 in /  994.1 hPa South 5.0 mph /  8 km/h 34.0 mph /  54.7 km/h 87 % 0.00 in /  0 mm 25 W/m2
08:20 43.5 °F /  6.4 °C 39.9 °F /  4.4 °C 29.36 in /  994.1 hPa South 5.0 mph /  8 km/h 5.0 mph /  8 km/h 87 % 0.00 in /  0 mm 28 W/m2
08:25 43.5 °F /  6.4 °C 39.9 °F /  4.4 °C 29.36 in /  994.1 hPa South 4.0 mph /  6.4 km/h 34.0 mph /  54.7 km/h 87 % 0.00 in /  0 mm 39 W/m2
08:30 43.4 °F /  6.3 °C 39.8 °F /  4.3 °C 29.36 in /  994.1 hPa SE 2.0 mph /  3.2 km/h 2.0 mph /  3.2 km/h 87 % 0.00 in /  0 mm 42 W/m2
08:35 43.3 °F /  6.3 °C 39.7 °F /  4.3 °C 29.36 in /  994.1 hPa ESE 2.0 mph /  3.2 km/h 34.0 mph /  54.7 km/h 87 % 0.00 in /  0 mm 44 W/m2
08:45 43.3 °F /  6.3 °C 40.0 °F /  4.4 °C 29.36 in /  994.1 hPa SSE 4.0 mph /  6.4 km/h 34.0 mph /  54.7 km/h 88 % 0.00 in /  0 mm 39 W/m2
08:50 43.3 °F /  6.3 °C 40.0 °F /  4.4 °C 29.36 in /  994.1 hPa SSE 6.0 mph /  9.7 km/h 6.0 mph /  9.7 km/h 88 % 0.00 in /  0 mm 35 W/m2
08:55 43.4 °F /  6.3 °C 40.1 °F /  4.5 °C 29.36 in /  994.1 hPa South 7.0 mph /  11.3 km/h 7.0 mph /  11.3 km/h 88 % 0.00 in /  0 mm 40 W/m2
09:00 43.5 °F /  6.4 °C 40.2 °F /  4.6 °C 29.36 in /  994.1 hPa South 7.0 mph /  11.3 km/h 7.0 mph /  11.3 km/h 88 % 0.00 in /  0 mm 44 W/m2
09:05 43.6 °F /  6.4 °C 40.3 °F /  4.6 °C 29.36 in /  994.1 hPa South 6.0 mph /  9.7 km/h 34.0 mph /  54.7 km/h 88 % 0.00 in /  0 mm 46 W/m2
09:15 43.8 °F /  6.6 °C 40.2 °F /  4.6 °C 29.37 in /  994.5 hPa South 7.0 mph /  11.3 km/h 34.0 mph /  54.7 km/h 87 % 0.00 in /  0 mm 111 W/m2
09:20 43.9 °F /  6.6 °C 40.6 °F /  4.8 °C 29.37 in /  994.5 hPa South 7.0 mph /  11.3 km/h 7.0 mph /  11.3 km/h 88 % 0.00 in /  0 mm 123 W/m2
09:25 43.9 °F /  6.6 °C 40.3 °F /  4.6 °C 29.37 in /  994.5 hPa South 6.0 mph /  9.7 km/h 34.0 mph /  54.7 km/h 87 % 0.00 in /  0 mm 167 W/m2
09:30 44.1 °F /  6.7 °C 40.5 °F /  4.7 °C 29.36 in /  994.1 hPa South 6.0 mph /  9.7 km/h 34.0 mph /  54.7 km/h 87 % 0.00 in /  0 mm 176 W/m2
09:35 44.3 °F /  6.8 °C 40.7 °F /  4.8 °C 29.37 in /  994.5 hPa SSW 7.0 mph /  11.3 km/h 34.0 mph /  54.7 km/h 87 % 0.00 in /  0 mm 192 W/m2
09:40 44.7 °F /  7.1 °C 41.1 °F /  5.1 °C 29.37 in /  994.5 hPa SSW 8.0 mph /  12.9 km/h 34.0 mph /  54.7 km/h 87 % 0.00 in /  0 mm 207 W/m2
09:50 45.2 °F /  7.3 °C 41.3 °F /  5.2 °C 29.37 in /  994.5 hPa SSW 9.0 mph /  14.5 km/h 34.0 mph /  54.7 km/h 86 % 0.00 in /  0 mm 207 W/m2
09:55 45.4 °F /  7.4 °C 41.2 °F /  5.1 °C 29.37 in /  994.5 hPa South 9.0 mph /  14.5 km/h 34.0 mph /  54.7 km/h 85 % 0.00 in /  0 mm 214 W/m2
10:00 45.6 °F /  7.6 °C 41.4 °F /  5.2 °C 29.37 in /  994.5 hPa SSW 10.0 mph /  16.1 km/h 10.0 mph /  16.1 km/h 85 % 0.00 in /  0 mm 236 W/m2
10:09 46.1 °F /  7.8 °C 41.5 °F /  5.3 °C 29.37 in /  994.5 hPa SSW 10.0 mph /  16.1 km/h 10.0 mph /  16.1 km/h 84 % 0.00 in /  0 mm 243 W/m2
10:15 46.3 °F /  7.9 °C 41.4 °F /  5.2 °C 29.37 in /  994.5 hPa South 10.0 mph /  16.1 km/h 19.0 mph /  30.6 km/h 83 % 0.00 in /  0 mm 258 W/m2
10:20 46.4 °F /  8 °C 41.5 °F /  5.3 °C 29.38 in /  994.8 hPa South 11.0 mph /  17.7 km/h 11.0 mph /  17.7 km/h 83 % 0.00 in /  0 mm 244 W/m2
10:29 46.8 °F /  8.2 °C 41.9 °F /  5.5 °C 29.38 in /  994.8 hPa South 9.0 mph /  14.5 km/h 9.0 mph /  14.5 km/h 83 % 0.00 in /  0 mm 207 W/m2
10:34 47.0 °F /  8.3 °C 41.8 °F /  5.4 °C 29.38 in /  994.8 hPa South 9.0 mph /  14.5 km/h 15.0 mph /  24.1 km/h 82 % 0.00 in /  0 mm 288 W/m2
10:39 47.2 °F /  8.4 °C 42.0 °F /  5.6 °C 29.38 in /  994.8 hPa South 9.0 mph /  14.5 km/h 9.0 mph /  14.5 km/h 82 % 0.00 in /  0 mm 274 W/m2
10:44 47.5 °F /  8.6 °C 42.0 °F /  5.6 °C 29.38 in /  994.8 hPa SSE 8.0 mph /  12.9 km/h 34.0 mph /  54.7 km/h 81 % 0.00 in /  0 mm 283 W/m2
10:50 47.7 °F /  8.7 °C 42.2 °F /  5.7 °C 29.38 in /  994.8 hPa SSE 7.0 mph /  11.3 km/h 34.0 mph /  54.7 km/h 81 % 0.00 in /  0 mm 281 W/m2
10:55 47.7 °F /  8.7 °C 42.2 °F /  5.7 °C 29.37 in /  994.5 hPa SSW 8.0 mph /  12.9 km/h 34.0 mph /  54.7 km/h 81 % 0.00 in /  0 mm 336 W/m2
11:00 47.7 °F /  8.7 °C 42.2 °F /  5.7 °C 29.37 in /  994.5 hPa SE 9.0 mph /  14.5 km/h 9.0 mph /  14.5 km/h 81 % 0.00 in /  0 mm 345 W/m2
11:05 47.7 °F /  8.7 °C 42.2 °F /  5.7 °C 29.37 in /  994.5 hPa South 9.0 mph /  14.5 km/h 10.0 mph /  16.1 km/h 81 % 0.00 in /  0 mm 255 W/m2
11:10 47.7 °F /  8.7 °C 42.5 °F /  5.8 °C 29.37 in /  994.5 hPa South 9.0 mph /  14.5 km/h 34.0 mph /  54.7 km/h 82 % 0.00 in /  0 mm 197 W/m2
11:19 47.3 °F /  8.5 °C 42.1 °F /  5.6 °C 29.37 in /  994.5 hPa SSW 9.0 mph /  14.5 km/h 9.0 mph /  14.5 km/h 82 % 0.00 in /  0 mm 178 W/m2
11:25 47.3 °F /  8.5 °C 42.4 °F /  5.8 °C 29.37 in /  994.5 hPa South 8.0 mph /  12.9 km/h 34.0 mph /  54.7 km/h 83 % 0.00 in /  0 mm 206 W/m2
11:30 47.4 °F /  8.6 °C 42.5 °F /  5.8 °C 29.37 in /  994.5 hPa South 8.0 mph /  12.9 km/h 8.0 mph /  12.9 km/h 83 % 0.00 in /  0 mm 188 W/m2
11:39 47.6 °F /  8.7 °C 42.7 °F /  5.9 °C 29.37 in /  994.5 hPa South 6.0 mph /  9.7 km/h 34.0 mph /  54.7 km/h 83 % 0.00 in /  0 mm 186 W/m2
11:44 47.5 °F /  8.6 °C 42.6 °F /  5.9 °C 29.37 in /  994.5 hPa South 7.0 mph /  11.3 km/h 34.0 mph /  54.7 km/h 83 % 0.00 in /  0 mm 202 W/m2
11:49 47.7 °F /  8.7 °C 42.8 °F /  6 °C 29.37 in /  994.5 hPa SSE 8.0 mph /  12.9 km/h 34.0 mph /  54.7 km/h 83 % 0.00 in /  0 mm 355 W/m2
11:55 48.1 °F /  8.9 °C 43.2 °F /  6.2 °C 29.36 in /  994.1 hPa SE 8.0 mph /  12.9 km/h 34.0 mph /  54.7 km/h 83 % 0.00 in /  0 mm 413 W/m2
12:00 48.4 °F /  9.1 °C 43.2 °F /  6.2 °C 29.36 in /  994.1 hPa South 9.0 mph /  14.5 km/h 34.0 mph /  54.7 km/h 82 % 0.00 in /  0 mm 413 W/m2
12:05 48.6 °F /  9.2 °C 43.4 °F /  6.3 °C 29.36 in /  994.1 hPa SE 9.0 mph /  14.5 km/h 34.0 mph /  54.7 km/h 82 % 0.00 in /  0 mm 350 W/m2
12:14 48.7 °F /  9.3 °C 43.1 °F /  6.2 °C 29.36 in /  994.1 hPa SSE 9.0 mph /  14.5 km/h 34.0 mph /  54.7 km/h 81 % 0.00 in /  0 mm 190 W/m2
12:20 48.8 °F /  9.3 °C 43.2 °F /  6.2 °C 29.36 in /  994.1 hPa South 9.0 mph /  14.5 km/h 34.0 mph /  54.7 km/h 81 % 0.00 in /  0 mm 438 W/m2
12:25 48.7 °F /  9.3 °C 43.1 °F /  6.2 °C 29.36 in /  994.1 hPa SSE 10.0 mph /  16.1 km/h 34.0 mph /  54.7 km/h 81 % 0.00 in /  0 mm 476 W/m2
12:34 49.1 °F /  9.5 °C 43.2 °F /  6.2 °C 29.35 in /  993.8 hPa SE 10.0 mph /  16.1 km/h 34.0 mph /  54.7 km/h 80 % 0.00 in /  0 mm 165 W/m2
12:40 48.9 °F /  9.4 °C 43.3 °F /  6.3 °C 29.35 in /  993.8 hPa ESE 11.0 mph /  17.7 km/h 34.0 mph /  54.7 km/h 81 % 0.00 in /  0 mm 148 W/m2
12:45 48.9 °F /  9.4 °C 43.3 °F /  6.3 °C 29.35 in /  993.8 hPa SSE 11.0 mph /  17.7 km/h 34.0 mph /  54.7 km/h 81 % 0.00 in /  0 mm 220 W/m2
12:50 49.1 °F /  9.5 °C 43.2 °F /  6.2 °C 29.35 in /  993.8 hPa SE 11.0 mph /  17.7 km/h 11.0 mph /  17.7 km/h 80 % 0.00 in /  0 mm 299 W/m2
12:55 49.1 °F /  9.5 °C 42.9 °F /  6.1 °C 29.35 in /  993.8 hPa SE 12.0 mph /  19.3 km/h 12.0 mph /  19.3 km/h 79 % 0.00 in /  0 mm 155 W/m2
13:05 49.1 °F /  9.5 °C 42.9 °F /  6.1 °C 29.34 in /  993.5 hPa SSE 10.0 mph /  16.1 km/h 14.0 mph /  22.5 km/h 79 % 0.00 in /  0 mm 153 W/m2
13:10 49.2 °F /  9.6 °C 43.0 °F /  6.1 °C 29.33 in /  993.1 hPa SE 9.0 mph /  14.5 km/h 34.0 mph /  54.7 km/h 79 % 0.00 in /  0 mm 315 W/m2
13:15 49.6 °F /  9.8 °C 43.0 °F /  6.1 °C 29.33 in /  993.1 hPa SSE 10.0 mph /  16.1 km/h 34.0 mph /  54.7 km/h 78 % 0.00 in /  0 mm 346 W/m2
13:20 49.8 °F /  9.9 °C 42.5 °F /  5.8 °C 29.33 in /  993.1 hPa SE 10.0 mph /  16.1 km/h 34.0 mph /  54.7 km/h 76 % 0.00 in /  0 mm 357 W/m2
13:25 49.9 °F /  9.9 °C 42.3 °F /  5.7 °C 29.32 in /  992.8 hPa ESE 11.0 mph /  17.7 km/h 34.0 mph /  54.7 km/h 75 % 0.00 in /  0 mm 334 W/m2
13:30 50.2 °F /  10.1 °C 42.9 °F /  6.1 °C 29.32 in /  992.8 hPa ESE 10.0 mph /  16.1 km/h 10.0 mph /  16.1 km/h 76 % 0.00 in /  0 mm 195 W/m2
13:40 50.5 °F /  10.3 °C 42.9 °F /  6.1 °C 29.32 in /  992.8 hPa ESE 11.0 mph /  17.7 km/h 11.0 mph /  17.7 km/h 75 % 0.00 in /  0 mm 318 W/m2
13:45 50.1 °F /  10.1 °C 41.8 °F /  5.4 °C 29.32 in /  992.8 hPa SE 12.0 mph /  19.3 km/h 12.0 mph /  19.3 km/h 73 % 0.00 in /  0 mm 192 W/m2
13:50 49.6 °F /  9.8 °C 41.7 °F /  5.4 °C 29.32 in /  992.8 hPa SE 13.0 mph /  20.9 km/h 13.0 mph /  20.9 km/h 74 % 0.00 in /  0 mm 97 W/m2
13:55 49.3 °F /  9.6 °C 41.7 °F /  5.4 °C 29.32 in /  992.8 hPa SSE 11.0 mph /  17.7 km/h 34.0 mph /  54.7 km/h 75 % 0.00 in /  0 mm 65 W/m2
14:00 49.0 °F /  9.4 °C 41.8 °F /  5.4 °C 29.31 in /  992.4 hPa South 11.0 mph /  17.7 km/h 11.0 mph /  17.7 km/h 76 % 0.00 in /  0 mm 84 W/m2
14:09 49.0 °F /  9.4 °C 41.8 °F /  5.4 °C 29.31 in /  992.4 hPa SE 10.0 mph /  16.1 km/h 10.0 mph /  16.1 km/h 76 % 0.00 in /  0 mm 130 W/m2
14:15 49.0 °F /  9.4 °C 41.4 °F /  5.2 °C 29.31 in /  992.4 hPa SE 10.0 mph /  16.1 km/h 34.0 mph /  54.7 km/h 75 % 0.00 in /  0 mm 118 W/m2
14:20 48.9 °F /  9.4 °C 41.3 °F /  5.2 °C 29.31 in /  992.4 hPa SSE 11.0 mph /  17.7 km/h 34.0 mph /  54.7 km/h 75 % 0.00 in /  0 mm 120 W/m2
14:25 48.7 °F /  9.3 °C 41.1 °F /  5.1 °C 29.31 in /  992.4 hPa SSE 12.0 mph /  19.3 km/h 34.0 mph /  54.7 km/h 75 % 0.00 in /  0 mm 142 W/m2
14:30 48.7 °F /  9.3 °C 41.5 °F /  5.3 °C 29.30 in /  992.1 hPa ESE 10.0 mph /  16.1 km/h 10.0 mph /  16.1 km/h 76 % 0.00 in /  0 mm 116 W/m2
14:35 48.7 °F /  9.3 °C 41.5 °F /  5.3 °C 29.31 in /  992.4 hPa SSE 10.0 mph /  16.1 km/h 34.0 mph /  54.7 km/h 76 % 0.00 in /  0 mm 83 W/m2
14:44 48.6 °F /  9.2 °C 41.4 °F /  5.2 °C 29.30 in /  992.1 hPa SE 9.0 mph /  14.5 km/h 34.0 mph /  54.7 km/h 76 % 0.00 in /  0 mm 40 W/m2
14:49 48.6 °F /  9.2 °C 41.4 °F /  5.2 °C 29.30 in /  992.1 hPa SSE 8.0 mph /  12.9 km/h 8.0 mph /  12.9 km/h 76 % 0.00 in /  0 mm 37 W/m2
14:54 48.5 °F /  9.2 °C 41.3 °F /  5.2 °C 29.30 in /  992.1 hPa SE 9.0 mph /  14.5 km/h 10.0 mph /  16.1 km/h 76 % 0.00 in /  0 mm 39 W/m2
15:00 48.4 °F /  9.1 °C 41.2 °F /  5.1 °C 29.29 in /  991.8 hPa SSE 10.0 mph /  16.1 km/h 10.0 mph /  16.1 km/h 76 % 0.00 in /  0 mm 44 W/m2
15:05 48.3 °F /  9.1 °C 41.1 °F /  5.1 °C 29.29 in /  991.8 hPa SSE 10.0 mph /  16.1 km/h 11.0 mph /  17.7 km/h 76 % 0.00 in /  0 mm 35 W/m2
15:14 48.2 °F /  9 °C 41.3 °F /  5.2 °C 29.29 in /  991.8 hPa SE 9.0 mph /  14.5 km/h 34.0 mph /  54.7 km/h 77 % 0.00 in /  0 mm 46 W/m2
15:20 48.1 °F /  8.9 °C 41.2 °F /  5.1 °C 29.28 in /  991.4 hPa SE 8.0 mph /  12.9 km/h 34.0 mph /  54.7 km/h 77 % 0.00 in /  0 mm 42 W/m2
15:25 48.1 °F /  8.9 °C 41.6 °F /  5.3 °C 29.28 in /  991.4 hPa SE 9.0 mph /  14.5 km/h 34.0 mph /  54.7 km/h 78 % 0.00 in /  0 mm 56 W/m2
15:30 48.1 °F /  8.9 °C 41.6 °F /  5.3 °C 29.27 in /  991.1 hPa ESE 10.0 mph /  16.1 km/h 10.0 mph /  16.1 km/h 78 % 0.00 in /  0 mm 69 W/m2
15:35 48.1 °F /  8.9 °C 41.9 °F /  5.5 °C 29.27 in /  991.1 hPa ESE 10.0 mph /  16.1 km/h 34.0 mph /  54.7 km/h 79 % 0.00 in /  0 mm 70 W/m2
15:40 48.1 °F /  8.9 °C 41.9 °F /  5.5 °C 29.27 in /  991.1 hPa ESE 10.0 mph /  16.1 km/h 10.0 mph /  16.1 km/h 79 % 0.00 in /  0 mm 51 W/m2
15:50 48.0 °F /  8.9 °C 41.8 °F /  5.4 °C 29.27 in /  991.1 hPa ESE 10.0 mph /  16.1 km/h 10.0 mph /  16.1 km/h 79 % 0.00 in /  0 mm 46 W/m2
15:55 48.0 °F /  8.9 °C 42.1 °F /  5.6 °C 29.27 in /  991.1 hPa SE 10.0 mph /  16.1 km/h 11.0 mph /  17.7 km/h 80 % 0.00 in /  0 mm 42 W/m2
16:00 48.0 °F /  8.9 °C 42.1 °F /  5.6 °C 29.27 in /  991.1 hPa ESE 10.0 mph /  16.1 km/h 10.0 mph /  16.1 km/h 80 % 0.00 in /  0 mm 39 W/m2
16:05 48.0 °F /  8.9 °C 42.1 °F /  5.6 °C 29.26 in /  990.7 hPa SE 11.0 mph /  17.7 km/h 13.0 mph /  20.9 km/h 80 % 0.00 in /  0 mm 42 W/m2
16:10 48.0 °F /  8.9 °C 42.4 °F /  5.8 °C 29.27 in /  991.1 hPa ESE 11.0 mph /  17.7 km/h 11.0 mph /  17.7 km/h 81 % 0.00 in /  0 mm 39 W/m2
16:15 47.9 °F /  8.8 °C 42.3 °F /  5.7 °C 29.26 in /  990.7 hPa ESE 10.0 mph /  16.1 km/h 34.0 mph /  54.7 km/h 81 % 0.00 in /  0 mm 26 W/m2
16:20 47.9 °F /  8.8 °C 42.3 °F /  5.7 °C 29.26 in /  990.7 hPa ESE 9.0 mph /  14.5 km/h 34.0 mph /  54.7 km/h 81 % 0.00 in /  0 mm 23 W/m2
16:25 47.9 °F /  8.8 °C 42.7 °F /  5.9 °C 29.25 in /  990.4 hPa ESE 11.0 mph /  17.7 km/h 34.0 mph /  54.7 km/h 82 % 0.00 in /  0 mm 18 W/m2
16:30 47.8 °F /  8.8 °C 42.6 °F /  5.9 °C 29.25 in /  990.4 hPa ENE 10.0 mph /  16.1 km/h 10.0 mph /  16.1 km/h 82 % 0.00 in /  0 mm 11 W/m2
16:35 47.6 °F /  8.7 °C 42.4 °F /  5.8 °C 29.25 in /  990.4 hPa ESE 10.0 mph /  16.1 km/h 11.0 mph /  17.7 km/h 82 % 0.00 in /  0 mm 7 W/m2
16:40 47.5 °F /  8.6 °C 42.6 °F /  5.9 °C 29.25 in /  990.4 hPa SSE 10.0 mph /  16.1 km/h 10.0 mph /  16.1 km/h 83 % 0.00 in /  0 mm 7 W/m2
16:50 47.2 °F /  8.4 °C 42.3 °F /  5.7 °C 29.25 in /  990.4 hPa SE 9.0 mph /  14.5 km/h 9.0 mph /  14.5 km/h 83 % 0.00 in /  0 mm 0 W/m2
16:55 47.1 °F /  8.4 °C 42.2 °F /  5.7 °C 29.25 in /  990.4 hPa SE 9.0 mph /  14.5 km/h 12.0 mph /  19.3 km/h 83 % 0.00 in /  0 mm 0 W/m2
17:05 47.0 °F /  8.3 °C 42.1 °F /  5.6 °C 29.25 in /  990.4 hPa ESE 10.0 mph /  16.1 km/h 34.0 mph /  54.7 km/h 83 % 0.00 in /  0 mm 0 W/m2
17:10 47.0 °F /  8.3 °C 42.1 °F /  5.6 °C 29.24 in /  990.1 hPa SE 9.0 mph /  14.5 km/h 9.0 mph /  14.5 km/h 83 % 0.00 in /  0 mm 0 W/m2
17:15 47.0 °F /  8.3 °C 42.1 °F /  5.6 °C 29.24 in /  990.1 hPa ESE 10.0 mph /  16.1 km/h 10.0 mph /  16.1 km/h 83 % 0.00 in /  0 mm 0 W/m2
17:25 47.0 °F /  8.3 °C 42.1 °F /  5.6 °C 29.24 in /  990.1 hPa SE 12.0 mph /  19.3 km/h 14.0 mph /  22.5 km/h 83 % 0.00 in /  0 mm 0 W/m2
17:30 47.0 °F /  8.3 °C 42.1 °F /  5.6 °C 29.24 in /  990.1 hPa SE 13.0 mph /  20.9 km/h 34.0 mph /  54.7 km/h 83 % 0.00 in /  0 mm 0 W/m2
17:35 47.0 °F /  8.3 °C 42.1 °F /  5.6 °C 29.24 in /  990.1 hPa ESE 13.0 mph /  20.9 km/h 34.0 mph /  54.7 km/h 83 % 0.00 in /  0 mm 0 W/m2
17:40 47.0 °F /  8.3 °C 42.4 °F /  5.8 °C 29.24 in /  990.1 hPa SE 13.0 mph /  20.9 km/h 34.0 mph /  54.7 km/h 84 % 0.00 in /  0 mm 0 W/m2
17:45 46.9 °F /  8.3 °C 42.3 °F /  5.7 °C 29.24 in /  990.1 hPa ESE 13.0 mph /  20.9 km/h 34.0 mph /  54.7 km/h 84 % 0.00 in /  0 mm 0 W/m2
17:50 46.9 °F /  8.3 °C 42.3 °F /  5.7 °C 29.24 in /  990.1 hPa ESE 13.0 mph /  20.9 km/h 13.0 mph /  20.9 km/h 84 % 0.00 in /  0 mm 0 W/m2
18:00 46.9 °F /  8.3 °C 42.6 °F /  5.9 °C 29.24 in /  990.1 hPa ESE 14.0 mph /  22.5 km/h 14.0 mph /  22.5 km/h 85 % 0.00 in /  0 mm 0 W/m2
18:05 46.9 °F /  8.3 °C 42.6 °F /  5.9 °C 29.23 in /  989.7 hPa ESE 14.0 mph /  22.5 km/h 18.0 mph /  29 km/h 85 % 0.00 in /  0 mm 0 W/m2
18:10 46.9 °F /  8.3 °C 42.6 °F /  5.9 °C 29.23 in /  989.7 hPa ESE 13.0 mph /  20.9 km/h 34.0 mph /  54.7 km/h 85 % 0.00 in /  0 mm 0 W/m2
18:15 46.8 °F /  8.2 °C 42.5 °F /  5.8 °C 29.23 in /  989.7 hPa SE 13.0 mph /  20.9 km/h 34.0 mph /  54.7 km/h 85 % 0.00 in /  0 mm 0 W/m2
18:20 46.8 °F /  8.2 °C 42.5 °F /  5.8 °C 29.23 in /  989.7 hPa SE 13.0 mph /  20.9 km/h 13.0 mph /  20.9 km/h 85 % 0.00 in /  0 mm 0 W/m2
18:30 46.7 °F /  8.2 °C 42.4 °F /  5.8 °C 29.23 in /  989.7 hPa ESE 15.0 mph /  24.1 km/h 34.0 mph /  54.7 km/h 85 % 0.00 in /  0 mm 0 W/m2
18:35 46.7 °F /  8.2 °C 42.4 °F /  5.8 °C 29.22 in /  989.4 hPa East 14.0 mph /  22.5 km/h 34.0 mph /  54.7 km/h 85 % 0.00 in /  0 mm 0 W/m2
18:40 46.6 °F /  8.1 °C 42.3 °F /  5.7 °C 29.22 in /  989.4 hPa ESE 14.0 mph /  22.5 km/h 14.0 mph /  22.5 km/h 85 % 0.00 in /  0 mm 0 W/m2
18:45 46.6 °F /  8.1 °C 42.3 °F /  5.7 °C 29.22 in /  989.4 hPa ESE 13.0 mph /  20.9 km/h 34.0 mph /  54.7 km/h 85 % 0.00 in /  0 mm 0 W/m2
18:50 46.6 °F /  8.1 °C 42.3 °F /  5.7 °C 29.22 in /  989.4 hPa South 12.0 mph /  19.3 km/h 34.0 mph /  54.7 km/h 85 % 0.00 in /  0 mm 0 W/m2
18:55 46.5 °F /  8.1 °C 42.2 °F /  5.7 °C 29.22 in /  989.4 hPa East 12.0 mph /  19.3 km/h 34.0 mph /  54.7 km/h 85 % 0.00 in /  0 mm 0 W/m2
19:05 46.4 °F /  8 °C 42.4 °F /  5.8 °C 29.22 in /  989.4 hPa ESE 12.0 mph /  19.3 km/h 34.0 mph /  54.7 km/h 86 % 0.00 in /  0 mm 0 W/m2
19:10 46.4 °F /  8 °C 42.1 °F /  5.6 °C 29.22 in /  989.4 hPa SSE 13.0 mph /  20.9 km/h 13.0 mph /  20.9 km/h 85 % 0.00 in /  0 mm 0 W/m2
19:15 46.4 °F /  8 °C 42.4 °F /  5.8 °C 29.21 in /  989.1 hPa ESE 14.0 mph /  22.5 km/h 14.0 mph /  22.5 km/h 86 % 0.00 in /  0 mm 0 W/m2
19:20 46.3 °F /  7.9 °C 42.3 °F /  5.7 °C 29.21 in /  989.1 hPa ESE 12.0 mph /  19.3 km/h 34.0 mph /  54.7 km/h 86 % 0.00 in /  0 mm 0 W/m2
19:25 46.3 °F /  7.9 °C 42.3 °F /  5.7 °C 29.21 in /  989.1 hPa ESE 12.0 mph /  19.3 km/h 34.0 mph /  54.7 km/h 86 % 0.00 in /  0 mm 0 W/m2
19:35 46.2 °F /  7.9 °C 42.2 °F /  5.7 °C 29.21 in /  989.1 hPa SE 13.0 mph /  20.9 km/h 20.0 mph /  32.2 km/h 86 % 0.00 in /  0 mm 0 W/m2
19:40 46.2 °F /  7.9 °C 42.2 °F /  5.7 °C 29.20 in /  988.7 hPa ESE 12.0 mph /  19.3 km/h 12.0 mph /  19.3 km/h 86 % 0.00 in /  0 mm 0 W/m2
19:45 46.1 °F /  7.8 °C 42.4 °F /  5.8 °C 29.20 in /  988.7 hPa SE 12.0 mph /  19.3 km/h 34.0 mph /  54.7 km/h 87 % 0.00 in /  0 mm 0 W/m2
19:50 45.8 °F /  7.7 °C 42.4 °F /  5.8 °C 29.20 in /  988.7 hPa ESE 12.0 mph /  19.3 km/h 12.0 mph /  19.3 km/h 88 % 0.00 in /  0 mm 0 W/m2
19:55 45.6 °F /  7.6 °C 42.5 °F /  5.8 °C 29.20 in /  988.7 hPa ESE 13.0 mph /  20.9 km/h 13.0 mph /  20.9 km/h 89 % 0.00 in /  0 mm 0 W/m2
20:00 45.4 °F /  7.4 °C 42.6 °F /  5.9 °C 29.19 in /  988.4 hPa ESE 12.0 mph /  19.3 km/h 12.0 mph /  19.3 km/h 90 % 0.00 in /  0 mm 0 W/m2
20:10 45.1 °F /  7.3 °C 42.6 °F /  5.9 °C 29.19 in /  988.4 hPa ESE 11.0 mph /  17.7 km/h 34.0 mph /  54.7 km/h 91 % 0.00 in /  0 mm 0 W/m2
20:15 45.0 °F /  7.2 °C 42.5 °F /  5.8 °C 29.19 in /  988.4 hPa ESE 11.0 mph /  17.7 km/h 34.0 mph /  54.7 km/h 91 % 0.00 in /  0 mm 0 W/m2
20:20 44.9 °F /  7.2 °C 42.7 °F /  5.9 °C 29.18 in /  988 hPa ESE 11.0 mph /  17.7 km/h 34.0 mph /  54.7 km/h 92 % 0.00 in /  0 mm 0 W/m2
20:25 44.9 °F /  7.2 °C 42.7 °F /  5.9 °C 29.18 in /  988 hPa SE 10.0 mph /  16.1 km/h 34.0 mph /  54.7 km/h 92 % 0.00 in /  0 mm 0 W/m2
20:35 44.8 °F /  7.1 °C 42.6 °F /  5.9 °C 29.17 in /  987.7 hPa ESE 11.0 mph /  17.7 km/h 13.0 mph /  20.9 km/h 92 % 0.00 in /  0 mm 0 W/m2
20:40 44.8 °F /  7.1 °C 42.6 °F /  5.9 °C 29.18 in /  988 hPa ESE 11.0 mph /  17.7 km/h 34.0 mph /  54.7 km/h 92 % 0.00 in /  0 mm 0 W/m2
20:45 44.8 °F /  7.1 °C 42.6 °F /  5.9 °C 29.17 in /  987.7 hPa SE 12.0 mph /  19.3 km/h 34.0 mph /  54.7 km/h 92 % 0.00 in /  0 mm 0 W/m2
20:55 44.9 °F /  7.2 °C 42.7 °F /  5.9 °C 29.17 in /  987.7 hPa ESE 11.0 mph /  17.7 km/h 34.0 mph /  54.7 km/h 92 % 0.00 in /  0 mm 0 W/m2
21:00 44.8 °F /  7.1 °C 42.6 °F /  5.9 °C 29.17 in /  987.7 hPa ESE 10.0 mph /  16.1 km/h 10.0 mph /  16.1 km/h 92 % 0.00 in /  0 mm 0 W/m2
21:05 44.8 °F /  7.1 °C 42.6 °F /  5.9 °C 29.17 in /  987.7 hPa SE 10.0 mph /  16.1 km/h 13.0 mph /  20.9 km/h 92 % 0.00 in /  0 mm 0 W/m2
21:15 44.7 °F /  7.1 °C 42.5 °F /  5.8 °C 29.17 in /  987.7 hPa SE 11.0 mph /  17.7 km/h 11.0 mph /  17.7 km/h 92 % 0.00 in /  0 mm 0 W/m2
21:20 44.7 °F /  7.1 °C 42.5 °F /  5.8 °C 29.16 in /  987.4 hPa ESE 11.0 mph /  17.7 km/h 34.0 mph /  54.7 km/h 92 % 0.00 in /  0 mm 0 W/m2
21:25 44.7 °F /  7.1 °C 42.5 °F /  5.8 °C 29.16 in /  987.4 hPa ESE 10.0 mph /  16.1 km/h 34.0 mph /  54.7 km/h 92 % 0.00 in /  0 mm 0 W/m2
21:30 44.6 °F /  7 °C 42.7 °F /  5.9 °C 29.16 in /  987.4 hPa SE 9.0 mph /  14.5 km/h 9.0 mph /  14.5 km/h 93 % 0.00 in /  0 mm 0 W/m2
21:35 44.6 °F /  7 °C 42.7 °F /  5.9 °C 29.16 in /  987.4 hPa SSE 8.0 mph /  12.9 km/h 14.0 mph /  22.5 km/h 93 % 0.00 in /  0 mm 0 W/m2
21:40 44.5 °F /  6.9 °C 42.6 °F /  5.9 °C 29.16 in /  987.4 hPa SE 8.0 mph /  12.9 km/h 8.0 mph /  12.9 km/h 93 % 0.00 in /  0 mm 0 W/m2
21:45 44.4 °F /  6.9 °C 42.5 °F /  5.8 °C 29.16 in /  987.4 hPa SE 8.0 mph /  12.9 km/h 9.0 mph /  14.5 km/h 93 % 0.00 in /  0 mm 0 W/m2
21:50 44.4 °F /  6.9 °C 42.8 °F /  6 °C 29.15 in /  987 hPa ESE 9.0 mph /  14.5 km/h 34.0 mph /  54.7 km/h 94 % 0.00 in /  0 mm 0 W/m2
21:55 44.3 °F /  6.8 °C 42.7 °F /  5.9 °C 29.15 in /  987 hPa ESE 10.0 mph /  16.1 km/h 34.0 mph /  54.7 km/h 94 % 0.00 in /  0 mm 0 W/m2
22:00 44.3 °F /  6.8 °C 42.7 °F /  5.9 °C 29.15 in /  987 hPa ESE 9.0 mph /  14.5 km/h 34.0 mph /  54.7 km/h 94 % 0.00 in /  0 mm 0 W/m2
22:05 44.3 °F /  6.8 °C 42.7 °F /  5.9 °C 29.15 in /  987 hPa SE 9.0 mph /  14.5 km/h 34.0 mph /  54.7 km/h 94 % 0.00 in /  0 mm 0 W/m2
22:10 44.2 °F /  6.8 °C 42.6 °F /  5.9 °C 29.15 in /  987 hPa SE 10.0 mph /  16.1 km/h 10.0 mph /  16.1 km/h 94 % 0.00 in /  0 mm 0 W/m2
22:15 44.3 °F /  6.8 °C 42.7 °F /  5.9 °C 29.15 in /  987 hPa SE 10.0 mph /  16.1 km/h 34.0 mph /  54.7 km/h 94 % 0.00 in /  0 mm 0 W/m2
22:20 44.2 °F /  6.8 °C 42.6 °F /  5.9 °C 29.15 in /  987 hPa ESE 10.0 mph /  16.1 km/h 10.0 mph /  16.1 km/h 94 % 0.00 in /  0 mm 0 W/m2
22:25 44.2 °F /  6.8 °C 42.6 °F /  5.9 °C 29.15 in /  987 hPa ESE 9.0 mph /  14.5 km/h 34.0 mph /  54.7 km/h 94 % 0.00 in /  0 mm 0 W/m2
22:30 44.2 °F /  6.8 °C 42.6 °F /  5.9 °C 29.14 in /  986.7 hPa SE 8.0 mph /  12.9 km/h 34.0 mph /  54.7 km/h 94 % 0.00 in /  0 mm 0 W/m2
22:35 44.2 °F /  6.8 °C 42.9 °F /  6.1 °C 29.14 in /  986.7 hPa SE 8.0 mph /  12.9 km/h 34.0 mph /  54.7 km/h 95 % 0.00 in /  0 mm 0 W/m2
22:40 44.2 °F /  6.8 °C 42.9 °F /  6.1 °C 29.14 in /  986.7 hPa ESE 8.0 mph /  12.9 km/h 34.0 mph /  54.7 km/h 95 % 0.00 in /  0 mm 0 W/m2
22:45 44.1 °F /  6.7 °C 42.8 °F /  6 °C 29.14 in /  986.7 hPa SE 8.0 mph /  12.9 km/h 34.0 mph /  54.7 km/h 95 % 0.00 in /  0 mm 0 W/m2
22:55 44.2 °F /  6.8 °C 42.9 °F /  6.1 °C 29.14 in /  986.7 hPa SE 9.0 mph /  14.5 km/h 34.0 mph /  54.7 km/h 95 % 0.00 in /  0 mm 0 W/m2
23:00 44.1 °F /  6.7 °C 42.8 °F /  6 °C 29.14 in /  986.7 hPa ESE 9.0 mph /  14.5 km/h 9.0 mph /  14.5 km/h 95 % 0.00 in /  0 mm 0 W/m2
23:05 44.1 °F /  6.7 °C 42.5 °F /  5.8 °C 29.14 in /  986.7 hPa SE 9.0 mph /  14.5 km/h 34.0 mph /  54.7 km/h 94 % 0.00 in /  0 mm 0 W/m2
23:10 44.2 °F /  6.8 °C 42.6 °F /  5.9 °C 29.14 in /  986.7 hPa SSE 9.0 mph /  14.5 km/h 9.0 mph /  14.5 km/h 94 % 0.00 in /  0 mm 0 W/m2
23:20 44.1 °F /  6.7 °C 42.5 °F /  5.8 °C 29.14 in /  986.7 hPa SE 8.0 mph /  12.9 km/h 34.0 mph /  54.7 km/h 94 % 0.00 in /  0 mm 0 W/m2
23:25 44.1 °F /  6.7 °C 42.5 °F /  5.8 °C 29.14 in /  986.7 hPa SE 7.0 mph /  11.3 km/h 34.0 mph /  54.7 km/h 94 % 0.00 in /  0 mm 0 W/m2
23:30 44.1 °F /  6.7 °C 42.5 °F /  5.8 °C 29.14 in /  986.7 hPa SE 7.0 mph /  11.3 km/h 34.0 mph /  54.7 km/h 94 % 0.00 in /  0 mm 0 W/m2
23:40 44.1 °F /  6.7 °C 42.5 °F /  5.8 °C 29.14 in /  986.7 hPa SSE 7.0 mph /  11.3 km/h 34.0 mph /  54.7 km/h 94 % 0.00 in /  0 mm 0 W/m2
23:45 44.1 °F /  6.7 °C 42.5 °F /  5.8 °C 29.14 in /  986.7 hPa SE 7.0 mph /  11.3 km/h 34.0 mph /  54.7 km/h 94 % 0.00 in /  0 mm 0 W/m2
23:50 44.1 °F /  6.7 °C 42.8 °F /  6 °C 29.15 in /  987 hPa SSW 7.0 mph /  11.3 km/h 7.0 mph /  11.3 km/h 95 % 0.00 in /  0 mm 0 W/m2
23:55 43.0 °F /  6.1 °C 40.8 °F /  4.9 °C 29.16 in /  987.4 hPa WNW 8.0 mph /  12.9 km/h 9.0 mph /  14.5 km/h 92 % 0.75 in /  19.05 mm 0 W/m2
Delerius-Weather
Compliments of Weather Underground - 2 mb

Data updates at regular intervals.